sensor_id;sensor_type;location;lat;lon;timestamp;pressure;altitude;pressure_sealevel;temperature;humidity
58690;BME280;44470;53.206;-6.106;2023-06-14T00:00:30;101664.88;;;20.92;61.81
58690;BME280;44470;53.206;-6.106;2023-06-14T00:02:56;101662.19;;;20.92;61.89
58690;BME280;44470;53.206;-6.106;2023-06-14T00:05:22;101678.25;;;20.92;61.99
58690;BME280;44470;53.206;-6.106;2023-06-14T00:07:48;101679.09;;;20.93;61.91
58690;BME280;44470;53.206;-6.106;2023-06-14T00:10:14;101670.22;;;20.92;61.85
58690;BME280;44470;53.206;-6.106;2023-06-14T00:12:40;101680.00;;;20.93;61.81
58690;BME280;44470;53.206;-6.106;2023-06-14T00:15:06;101675.56;;;20.92;61.69
58690;BME280;44470;53.206;-6.106;2023-06-14T00:17:32;101683.56;;;20.94;61.89
58690;BME280;44470;53.206;-6.106;2023-06-14T00:19:58;101680.91;;;20.92;61.99
58690;BME280;44470;53.206;-6.106;2023-06-14T00:22:24;101679.09;;;20.93;62.03
58690;BME280;44470;53.206;-6.106;2023-06-14T00:24:56;101680.00;;;20.93;61.86
58690;BME280;44470;53.206;-6.106;2023-06-14T00:27:21;101680.00;;;20.93;61.76
58690;BME280;44470;53.206;-6.106;2023-06-14T00:29:46;101672.84;;;20.94;61.76
58690;BME280;44470;53.206;-6.106;2023-06-14T00:32:12;101679.13;;;20.94;61.50
58690;BME280;44470;53.206;-6.106;2023-06-14T00:34:37;101665.72;;;20.94;61.98
58690;BME280;44470;53.206;-6.106;2023-06-14T00:37:03;101667.50;;;20.94;61.72
58690;BME280;44470;53.206;-6.106;2023-06-14T00:39:28;101671.09;;;20.94;61.92
58690;BME280;44470;53.206;-6.106;2023-06-14T00:41:54;101666.63;;;20.95;61.72
58690;BME280;44470;53.206;-6.106;2023-06-14T00:44:20;101664.84;;;20.95;61.65
58690;BME280;44470;53.206;-6.106;2023-06-14T00:46:46;101664.84;;;20.94;61.89
58690;BME280;44470;53.206;-6.106;2023-06-14T00:49:12;101658.59;;;20.93;61.94
58690;BME280;44470;53.206;-6.106;2023-06-14T00:51:41;101669.31;;;20.95;61.82
58690;BME280;44470;53.206;-6.106;2023-06-14T00:54:06;101660.38;;;20.94;62.02
58690;BME280;44470;53.206;-6.106;2023-06-14T00:56:32;101655.03;;;20.94;62.01
58690;BME280;44470;53.206;-6.106;2023-06-14T00:58:58;101661.28;;;20.95;61.73
58690;BME280;44470;53.206;-6.106;2023-06-14T01:01:23;101667.50;;;20.94;61.71
58690;BME280;44470;53.206;-6.106;2023-06-14T01:03:49;101670.19;;;20.94;62.05
58690;BME280;44470;53.206;-6.106;2023-06-14T01:08:50;101663.97;;;20.93;61.94
58690;BME280;44470;53.206;-6.106;2023-06-14T01:11:18;101665.72;;;20.94;61.97
58690;BME280;44470;53.206;-6.106;2023-06-14T01:13:47;101669.31;;;20.95;62.05
58690;BME280;44470;53.206;-6.106;2023-06-14T01:16:14;101673.75;;;20.94;62.07
58690;BME280;44470;53.206;-6.106;2023-06-14T01:18:39;101674.66;;;20.93;62.10
58690;BME280;44470;53.206;-6.106;2023-06-14T01:21:15;101679.13;;;20.96;62.15
58690;BME280;44470;53.206;-6.106;2023-06-14T01:23:47;101675.53;;;20.94;61.74
58690;BME280;44470;53.206;-6.106;2023-06-14T01:26:18;101682.69;;;20.93;61.88
58690;BME280;44470;53.206;-6.106;2023-06-14T01:28:44;101688.94;;;20.92;62.00
58690;BME280;44470;53.206;-6.106;2023-06-14T01:31:16;101687.13;;;20.94;61.75
58690;BME280;44470;53.206;-6.106;2023-06-14T01:33:42;101688.91;;;20.95;62.28
58690;BME280;44470;53.206;-6.106;2023-06-14T01:36:08;101688.91;;;20.94;62.21
58690;BME280;44470;53.206;-6.106;2023-06-14T01:38:34;101687.13;;;20.94;62.02
58690;BME280;44470;53.206;-6.106;2023-06-14T01:41:01;101689.81;;;20.93;62.25
58690;BME280;44470;53.206;-6.106;2023-06-14T01:43:28;101687.13;;;20.94;61.93
58690;BME280;44470;53.206;-6.106;2023-06-14T01:45:54;101695.16;;;20.94;62.22
58690;BME280;44470;53.206;-6.106;2023-06-14T01:48:21;101692.50;;;20.94;62.20
58690;BME280;44470;53.206;-6.106;2023-06-14T01:50:47;101688.03;;;20.93;62.20
58690;BME280;44470;53.206;-6.106;2023-06-14T01:53:13;101694.28;;;20.95;62.21
58690;BME280;44470;53.206;-6.106;2023-06-14T01:55:38;101708.53;;;20.94;62.11
58690;BME280;44470;53.206;-6.106;2023-06-14T01:58:08;101696.94;;;20.95;62.22
58690;BME280;44470;53.206;-6.106;2023-06-14T02:00:34;101704.09;;;20.93;62.26
58690;BME280;44470;53.206;-6.106;2023-06-14T02:03:00;101702.28;;;20.94;62.04
58690;BME280;44470;53.206;-6.106;2023-06-14T02:05:25;101703.19;;;20.94;62.23
58690;BME280;44470;53.206;-6.106;2023-06-14T02:07:51;101703.19;;;20.94;61.88
58690;BME280;44470;53.206;-6.106;2023-06-14T02:10:19;101675.69;;;20.76;62.05
58690;BME280;44470;53.206;-6.106;2023-06-14T02:12:46;101678.34;;;20.80;61.61
58690;BME280;44470;53.206;-6.106;2023-06-14T02:15:12;101703.19;;;20.94;61.63
58690;BME280;44470;53.206;-6.106;2023-06-14T02:17:44;101699.63;;;20.95;62.01
58690;BME280;44470;53.206;-6.106;2023-06-14T02:20:10;101702.28;;;20.95;62.26
58690;BME280;44470;53.206;-6.106;2023-06-14T02:22:35;101707.66;;;20.95;61.96
58690;BME280;44470;53.206;-6.106;2023-06-14T02:25:01;101694.28;;;20.95;61.97
58690;BME280;44470;53.206;-6.106;2023-06-14T02:27:26;101705.88;;;20.94;62.39
58690;BME280;44470;53.206;-6.106;2023-06-14T02:29:52;101695.16;;;20.94;62.15
58690;BME280;44470;53.206;-6.106;2023-06-14T02:32:17;101696.94;;;20.94;62.06
58690;BME280;44470;53.206;-6.106;2023-06-14T02:34:44;101710.31;;;20.95;62.19
58690;BME280;44470;53.206;-6.106;2023-06-14T02:37:10;101697.84;;;20.94;62.29
58690;BME280;44470;53.206;-6.106;2023-06-14T02:39:36;101700.53;;;20.94;62.10
58690;BME280;44470;53.206;-6.106;2023-06-14T02:42:02;101708.53;;;20.94;62.12
58690;BME280;44470;53.206;-6.106;2023-06-14T02:44:29;101697.84;;;20.94;62.08
58690;BME280;44470;53.206;-6.106;2023-06-14T02:46:55;101700.53;;;20.94;62.08
58690;BME280;44470;53.206;-6.106;2023-06-14T02:49:21;101701.44;;;20.93;62.37
58690;BME280;44470;53.206;-6.106;2023-06-14T02:51:47;101705.88;;;20.94;62.39
58690;BME280;44470;53.206;-6.106;2023-06-14T02:54:12;101708.53;;;20.94;62.27
58690;BME280;44470;53.206;-6.106;2023-06-14T02:56:38;101703.19;;;20.94;62.26
58690;BME280;44470;53.206;-6.106;2023-06-14T02:59:04;101712.13;;;20.93;62.10
58690;BME280;44470;53.206;-6.106;2023-06-14T03:01:30;101708.53;;;20.94;62.34
58690;BME280;44470;53.206;-6.106;2023-06-14T03:04:01;101717.47;;;20.93;62.38
58690;BME280;44470;53.206;-6.106;2023-06-14T03:06:30;101712.13;;;20.93;62.47
58690;BME280;44470;53.206;-6.106;2023-06-14T03:08:57;101717.47;;;20.93;62.24
58690;BME280;44470;53.206;-6.106;2023-06-14T03:11:30;101717.47;;;20.93;62.30
58690;BME280;44470;53.206;-6.106;2023-06-14T03:13:56;101716.56;;;20.94;62.10
58690;BME280;44470;53.206;-6.106;2023-06-14T03:16:24;101719.25;;;20.94;62.22
58690;BME280;44470;53.206;-6.106;2023-06-14T03:18:50;101724.59;;;20.94;62.04
58690;BME280;44470;53.206;-6.106;2023-06-14T03:21:16;101719.25;;;20.93;62.04
58690;BME280;44470;53.206;-6.106;2023-06-14T03:23:44;101720.16;;;20.93;62.09
58690;BME280;44470;53.206;-6.106;2023-06-14T03:26:10;101718.34;;;20.94;62.20
58690;BME280;44470;53.206;-6.106;2023-06-14T03:28:46;101717.47;;;20.93;61.96
58690;BME280;44470;53.206;-6.106;2023-06-14T03:31:13;101709.44;;;20.93;62.06
58690;BME280;44470;53.206;-6.106;2023-06-14T03:33:39;101712.13;;;20.93;62.21
58690;BME280;44470;53.206;-6.106;2023-06-14T03:36:05;101704.13;;;20.88;62.06
58690;BME280;44470;53.206;-6.106;2023-06-14T03:38:31;101710.34;;;20.92;62.33
58690;BME280;44470;53.206;-6.106;2023-06-14T03:40:56;101721.03;;;20.94;62.34
58690;BME280;44470;53.206;-6.106;2023-06-14T03:43:22;101718.34;;;20.94;61.98
58690;BME280;44470;53.206;-6.106;2023-06-14T03:45:48;101729.97;;;20.94;62.27
58690;BME280;44470;53.206;-6.106;2023-06-14T03:48:13;101730.84;;;20.93;62.08
58690;BME280;44470;53.206;-6.106;2023-06-14T03:50:39;101731.72;;;20.95;62.21
58690;BME280;44470;53.206;-6.106;2023-06-14T03:53:05;101734.41;;;20.94;62.33
58690;BME280;44470;53.206;-6.106;2023-06-14T03:55:31;101734.41;;;20.94;62.41
58690;BME280;44470;53.206;-6.106;2023-06-14T03:57:58;101730.84;;;20.93;62.31
58690;BME280;44470;53.206;-6.106;2023-06-14T04:00:23;101743.34;;;20.94;62.11
58690;BME280;44470;53.206;-6.106;2023-06-14T04:02:49;101736.22;;;20.93;62.13
58690;BME280;44470;53.206;-6.106;2023-06-14T04:05:15;101740.66;;;20.94;62.05
58690;BME280;44470;53.206;-6.106;2023-06-14T04:07:45;101742.44;;;20.94;62.09
58690;BME280;44470;53.206;-6.106;2023-06-14T04:10:11;101743.34;;;20.94;61.96
58690;BME280;44470;53.206;-6.106;2023-06-14T04:12:38;101746.00;;;20.94;62.26
58690;BME280;44470;53.206;-6.106;2023-06-14T04:15:03;101738.88;;;20.93;62.12
58690;BME280;44470;53.206;-6.106;2023-06-14T04:17:31;101743.34;;;20.94;62.04
58690;BME280;44470;53.206;-6.106;2023-06-14T04:19:58;101744.25;;;20.93;62.27
58690;BME280;44470;53.206;-6.106;2023-06-14T04:22:28;101746.00;;;20.94;62.16
58690;BME280;44470;53.206;-6.106;2023-06-14T04:24:55;101740.66;;;20.93;61.98
58690;BME280;44470;53.206;-6.106;2023-06-14T04:27:25;101738.88;;;20.93;62.11
58690;BME280;44470;53.206;-6.106;2023-06-14T04:29:54;101750.47;;;20.94;62.20
58690;BME280;44470;53.206;-6.106;2023-06-14T04:32:28;101751.38;;;20.93;61.99
58690;BME280;44470;53.206;-6.106;2023-06-14T04:34:55;101756.72;;;20.94;61.95
58690;BME280;44470;53.206;-6.106;2023-06-14T04:37:23;101758.50;;;20.94;61.97
58690;BME280;44470;53.206;-6.106;2023-06-14T04:39:48;101765.66;;;20.93;61.98
58690;BME280;44470;53.206;-6.106;2023-06-14T04:42:15;101761.16;;;20.94;61.89
58690;BME280;44470;53.206;-6.106;2023-06-14T04:44:42;101761.16;;;20.94;62.20
58690;BME280;44470;53.206;-6.106;2023-06-14T04:47:09;101760.28;;;20.93;61.93
58690;BME280;44470;53.206;-6.106;2023-06-14T04:49:35;101756.72;;;20.94;62.11
58690;BME280;44470;53.206;-6.106;2023-06-14T04:52:00;101756.72;;;20.94;61.96
58690;BME280;44470;53.206;-6.106;2023-06-14T04:54:33;101754.03;;;20.93;61.99
58690;BME280;44470;53.206;-6.106;2023-06-14T04:57:00;101760.28;;;20.93;62.03
58690;BME280;44470;53.206;-6.106;2023-06-14T04:59:26;101757.63;;;20.93;62.19
58690;BME280;44470;53.206;-6.106;2023-06-14T05:01:52;101761.19;;;20.92;61.81
58690;BME280;44470;53.206;-6.106;2023-06-14T05:04:18;101765.66;;;20.93;62.16
58690;BME280;44470;53.206;-6.106;2023-06-14T05:06:44;101765.66;;;20.93;62.18
58690;BME280;44470;53.206;-6.106;2023-06-14T05:09:11;101767.44;;;20.94;61.93
58690;BME280;44470;53.206;-6.106;2023-06-14T05:11:37;101761.16;;;20.94;62.11
58690;BME280;44470;53.206;-6.106;2023-06-14T05:14:03;101761.19;;;20.92;61.94
58690;BME280;44470;53.206;-6.106;2023-06-14T05:16:28;101760.28;;;20.93;62.00
58690;BME280;44470;53.206;-6.106;2023-06-14T05:18:54;101766.50;;;20.94;62.02
58690;BME280;44470;53.206;-6.106;2023-06-14T05:21:20;101759.38;;;20.93;61.97
58690;BME280;44470;53.206;-6.106;2023-06-14T05:23:45;101765.66;;;20.93;61.80
58690;BME280;44470;53.206;-6.106;2023-06-14T05:26:11;101776.34;;;20.93;62.16
58690;BME280;44470;53.206;-6.106;2023-06-14T05:28:36;101777.25;;;20.92;61.95
58690;BME280;44470;53.206;-6.106;2023-06-14T05:31:02;101771.00;;;20.93;62.10
58690;BME280;44470;53.206;-6.106;2023-06-14T05:33:27;101778.13;;;20.94;62.07
58690;BME280;44470;53.206;-6.106;2023-06-14T05:35:52;101783.47;;;20.94;61.98
58690;BME280;44470;53.206;-6.106;2023-06-14T05:38:18;101779.03;;;20.93;62.23
58690;BME280;44470;53.206;-6.106;2023-06-14T05:40:43;101782.56;;;20.94;61.90
58690;BME280;44470;53.206;-6.106;2023-06-14T05:43:09;101780.81;;;20.94;62.00
58690;BME280;44470;53.206;-6.106;2023-06-14T05:45:35;101777.22;;;20.94;62.05
58690;BME280;44470;53.206;-6.106;2023-06-14T05:48:01;101780.81;;;20.93;62.03
58690;BME280;44470;53.206;-6.106;2023-06-14T05:50:26;101780.81;;;20.93;62.25
58690;BME280;44470;53.206;-6.106;2023-06-14T05:52:52;101786.16;;;20.93;62.21
58690;BME280;44470;53.206;-6.106;2023-06-14T05:55:18;101787.06;;;20.93;62.21
58690;BME280;44470;53.206;-6.106;2023-06-14T05:57:43;101781.69;;;20.93;62.26
58690;BME280;44470;53.206;-6.106;2023-06-14T06:00:09;101778.13;;;20.93;62.48
58690;BME280;44470;53.206;-6.106;2023-06-14T06:02:42;101785.25;;;20.94;62.34
58690;BME280;44470;53.206;-6.106;2023-06-14T06:05:08;101787.06;;;20.93;62.54
58690;BME280;44470;53.206;-6.106;2023-06-14T06:07:34;101791.50;;;20.94;62.40
58690;BME280;44470;53.206;-6.106;2023-06-14T06:09:59;101785.25;;;20.94;62.25
58690;BME280;44470;53.206;-6.106;2023-06-14T06:12:25;101791.50;;;20.94;62.35
58690;BME280;44470;53.206;-6.106;2023-06-14T06:14:50;101795.94;;;20.94;62.41
58690;BME280;44470;53.206;-6.106;2023-06-14T06:17:16;101800.44;;;20.93;62.24
58690;BME280;44470;53.206;-6.106;2023-06-14T06:19:41;101799.53;;;20.94;62.34
58690;BME280;44470;53.206;-6.106;2023-06-14T06:22:06;101795.09;;;20.95;62.47
58690;BME280;44470;53.206;-6.106;2023-06-14T06:24:33;101801.31;;;20.95;62.52
58690;BME280;44470;53.206;-6.106;2023-06-14T06:26:58;101795.09;;;20.95;62.55
58690;BME280;44470;53.206;-6.106;2023-06-14T06:29:25;101802.22;;;20.94;62.33
58690;BME280;44470;53.206;-6.106;2023-06-14T06:31:50;101803.13;;;20.95;62.47
58690;BME280;44470;53.206;-6.106;2023-06-14T06:34:16;101812.00;;;20.95;62.43
58690;BME280;44470;53.206;-6.106;2023-06-14T06:36:41;101806.66;;;20.95;62.59
58690;BME280;44470;53.206;-6.106;2023-06-14T06:39:07;101818.28;;;20.96;62.21
58690;BME280;44470;53.206;-6.106;2023-06-14T06:41:36;101811.16;;;20.95;62.25
58690;BME280;44470;53.206;-6.106;2023-06-14T06:44:02;101812.00;;;20.95;61.85
58690;BME280;44470;53.206;-6.106;2023-06-14T06:46:28;101817.38;;;20.95;61.82
58690;BME280;44470;53.206;-6.106;2023-06-14T06:48:53;101827.19;;;20.96;62.29
58690;BME280;44470;53.206;-6.106;2023-06-14T06:51:19;101825.41;;;20.97;62.08
58690;BME280;44470;53.206;-6.106;2023-06-14T06:53:51;101825.41;;;20.97;62.15
58690;BME280;44470;53.206;-6.106;2023-06-14T06:56:17;101826.28;;;20.97;62.52
58690;BME280;44470;53.206;-6.106;2023-06-14T06:58:42;101831.63;;;20.97;62.43
58690;BME280;44470;53.206;-6.106;2023-06-14T07:01:07;101828.06;;;20.97;62.33
58690;BME280;44470;53.206;-6.106;2023-06-14T07:03:34;101824.50;;;20.96;62.35
58690;BME280;44470;53.206;-6.106;2023-06-14T07:06:00;101832.53;;;20.96;62.50
58690;BME280;44470;53.206;-6.106;2023-06-14T07:08:26;101831.66;;;20.96;62.60
58690;BME280;44470;53.206;-6.106;2023-06-14T07:10:52;101833.44;;;20.97;62.49
58690;BME280;44470;53.206;-6.106;2023-06-14T07:13:17;101835.19;;;20.96;62.14
58690;BME280;44470;53.206;-6.106;2023-06-14T07:15:43;101836.09;;;20.97;62.28
58690;BME280;44470;53.206;-6.106;2023-06-14T07:18:08;101837.91;;;20.95;62.60
58690;BME280;44470;53.206;-6.106;2023-06-14T07:20:34;101840.56;;;20.98;62.29
58690;BME280;44470;53.206;-6.106;2023-06-14T07:22:59;101836.97;;;20.97;62.51
58690;BME280;44470;53.206;-6.106;2023-06-14T07:25:25;101840.56;;;20.96;62.66
58690;BME280;44470;53.206;-6.106;2023-06-14T07:27:51;101844.13;;;20.95;62.46
58690;BME280;44470;53.206;-6.106;2023-06-14T07:30:16;101845.03;;;20.96;62.31
58690;BME280;44470;53.206;-6.106;2023-06-14T07:32:42;101843.25;;;20.95;62.78
58690;BME280;44470;53.206;-6.106;2023-06-14T07:35:07;101846.81;;;20.95;62.68
58690;BME280;44470;53.206;-6.106;2023-06-14T07:37:33;101848.59;;;20.96;62.67
58690;BME280;44470;53.206;-6.106;2023-06-14T07:39:58;101851.25;;;20.96;62.32
58690;BME280;44470;53.206;-6.106;2023-06-14T07:42:23;101851.25;;;20.96;62.08
58690;BME280;44470;53.206;-6.106;2023-06-14T07:44:49;101851.28;;;20.95;62.37
58690;BME280;44470;53.206;-6.106;2023-06-14T07:47:16;101850.38;;;20.94;61.98
58690;BME280;44470;53.206;-6.106;2023-06-14T07:49:41;101855.72;;;20.94;61.79
58690;BME280;44470;53.206;-6.106;2023-06-14T07:52:06;101853.97;;;20.95;61.43
58690;BME280;44470;53.206;-6.106;2023-06-14T07:54:32;101853.97;;;20.95;61.42
58690;BME280;44470;53.206;-6.106;2023-06-14T07:56:57;101851.28;;;20.93;61.28
58690;BME280;44470;53.206;-6.106;2023-06-14T07:59:25;101862.00;;;20.93;60.92
58690;BME280;44470;53.206;-6.106;2023-06-14T08:01:51;101863.75;;;20.94;61.19
58690;BME280;44470;53.206;-6.106;2023-06-14T08:04:16;101868.22;;;20.94;60.74
58690;BME280;44470;53.206;-6.106;2023-06-14T08:06:42;101870.88;;;20.94;60.95
58690;BME280;44470;53.206;-6.106;2023-06-14T08:09:10;101869.09;;;20.93;60.75
58690;BME280;44470;53.206;-6.106;2023-06-14T08:11:36;101867.34;;;20.93;60.86
58690;BME280;44470;53.206;-6.106;2023-06-14T08:14:02;101870.00;;;20.93;61.10
58690;BME280;44470;53.206;-6.106;2023-06-14T08:16:27;101870.00;;;20.93;61.32
58690;BME280;44470;53.206;-6.106;2023-06-14T08:18:52;101872.69;;;20.93;61.03
58690;BME280;44470;53.206;-6.106;2023-06-14T08:21:18;101874.47;;;20.94;61.38
58690;BME280;44470;53.206;-6.106;2023-06-14T08:23:43;101874.47;;;20.94;61.56
58690;BME280;44470;53.206;-6.106;2023-06-14T08:26:09;101876.25;;;20.94;61.40
58690;BME280;44470;53.206;-6.106;2023-06-14T08:28:35;101878.03;;;20.93;61.38
58690;BME280;44470;53.206;-6.106;2023-06-14T08:31:00;101885.16;;;20.94;61.60
58690;BME280;44470;53.206;-6.106;2023-06-14T08:33:26;101886.94;;;20.94;61.47
58690;BME280;44470;53.206;-6.106;2023-06-14T08:35:52;101880.72;;;20.93;61.65
58690;BME280;44470;53.206;-6.106;2023-06-14T08:38:17;101888.75;;;20.93;61.57
58690;BME280;44470;53.206;-6.106;2023-06-14T08:40:43;101889.66;;;20.92;61.47
58690;BME280;44470;53.206;-6.106;2023-06-14T08:43:10;101891.44;;;20.93;61.88
58690;BME280;44470;53.206;-6.106;2023-06-14T08:45:35;101891.44;;;20.93;61.62
58690;BME280;44470;53.206;-6.106;2023-06-14T08:48:01;101889.63;;;20.94;61.66
58690;BME280;44470;53.206;-6.106;2023-06-14T08:50:27;101886.06;;;20.93;61.81
58690;BME280;44470;53.206;-6.106;2023-06-14T08:52:58;101887.84;;;20.93;62.13
58690;BME280;44470;53.206;-6.106;2023-06-14T08:55:27;101886.97;;;20.92;61.97
58690;BME280;44470;53.206;-6.106;2023-06-14T08:57:53;101892.28;;;20.94;61.94
58690;BME280;44470;53.206;-6.106;2023-06-14T09:00:19;101895.00;;;20.92;61.76
58690;BME280;44470;53.206;-6.106;2023-06-14T09:02:46;101894.09;;;20.93;62.11
58690;BME280;44470;53.206;-6.106;2023-06-14T09:05:11;101888.75;;;20.91;62.17
58690;BME280;44470;53.206;-6.106;2023-06-14T09:07:41;101901.22;;;20.93;61.82
58690;BME280;44470;53.206;-6.106;2023-06-14T09:10:10;101894.09;;;20.93;62.26
58690;BME280;44470;53.206;-6.106;2023-06-14T09:12:36;101890.53;;;20.93;62.25
58690;BME280;44470;53.206;-6.106;2023-06-14T09:15:05;101889.63;;;20.94;62.03
58690;BME280;44470;53.206;-6.106;2023-06-14T09:17:38;101892.28;;;20.94;61.94
58690;BME280;44470;53.206;-6.106;2023-06-14T09:20:04;101892.31;;;20.92;61.96
58690;BME280;44470;53.206;-6.106;2023-06-14T09:22:34;101897.66;;;20.92;62.25
58690;BME280;44470;53.206;-6.106;2023-06-14T09:25:00;101898.53;;;20.93;61.94
58690;BME280;44470;53.206;-6.106;2023-06-14T09:27:26;101905.69;;;20.92;62.18
58690;BME280;44470;53.206;-6.106;2023-06-14T09:29:52;101911.06;;;20.92;62.27
58690;BME280;44470;53.206;-6.106;2023-06-14T09:32:17;101915.50;;;20.93;61.90
58690;BME280;44470;53.206;-6.106;2023-06-14T09:34:42;101919.97;;;20.93;62.12
58690;BME280;44470;53.206;-6.106;2023-06-14T09:37:08;101919.09;;;20.92;62.10
58690;BME280;44470;53.206;-6.106;2023-06-14T09:39:33;101919.09;;;20.92;62.05
58690;BME280;44470;53.206;-6.106;2023-06-14T09:41:59;101925.31;;;20.93;62.09
58690;BME280;44470;53.206;-6.106;2023-06-14T09:44:25;101923.53;;;20.93;62.03
58690;BME280;44470;53.206;-6.106;2023-06-14T09:46:53;101921.75;;;20.92;62.11
58690;BME280;44470;53.206;-6.106;2023-06-14T09:49:20;101917.28;;;20.93;61.89
58690;BME280;44470;53.206;-6.106;2023-06-14T09:51:46;101915.50;;;20.93;62.06
58690;BME280;44470;53.206;-6.106;2023-06-14T09:54:16;101911.94;;;20.93;62.31
58690;BME280;44470;53.206;-6.106;2023-06-14T09:56:43;101919.09;;;20.92;62.32
58690;BME280;44470;53.206;-6.106;2023-06-14T09:59:09;101916.41;;;20.92;62.06
58690;BME280;44470;53.206;-6.106;2023-06-14T10:01:35;101912.81;;;20.91;62.11
58690;BME280;44470;53.206;-6.106;2023-06-14T10:04:06;101916.41;;;20.92;62.07
58690;BME280;44470;53.206;-6.106;2023-06-14T10:06:32;101913.72;;;20.92;62.27
58690;BME280;44470;53.206;-6.106;2023-06-14T10:09:02;101917.31;;;20.91;62.35
58690;BME280;44470;53.206;-6.106;2023-06-14T10:11:28;101917.28;;;20.93;62.04
58690;BME280;44470;53.206;-6.106;2023-06-14T10:13:54;101916.41;;;20.92;62.07
58690;BME280;44470;53.206;-6.106;2023-06-14T10:16:23;101919.09;;;20.92;61.96
58690;BME280;44470;53.206;-6.106;2023-06-14T10:19:01;101923.53;;;20.91;62.05
58690;BME280;44470;53.206;-6.106;2023-06-14T10:24:15;101933.34;;;20.91;62.07
58690;BME280;44470;53.206;-6.106;2023-06-14T10:26:59;101929.78;;;20.92;62.33
58690;BME280;44470;53.206;-6.106;2023-06-14T10:29:26;101928.00;;;20.91;62.14
58690;BME280;44470;53.206;-6.106;2023-06-14T10:31:56;101930.69;;;20.91;62.03
58690;BME280;44470;53.206;-6.106;2023-06-14T10:34:22;101935.13;;;20.92;62.34
58690;BME280;44470;53.206;-6.106;2023-06-14T10:39:28;101932.47;;;20.92;62.49
58690;BME280;44470;53.206;-6.106;2023-06-14T10:41:55;101931.56;;;20.91;62.42
58690;BME280;44470;53.206;-6.106;2023-06-14T10:49:12;101927.13;;;20.92;62.31
58690;BME280;44470;53.206;-6.106;2023-06-14T10:51:41;101929.78;;;20.92;62.04
58690;BME280;44470;53.206;-6.106;2023-06-14T10:54:20;101931.56;;;20.91;62.15
58690;BME280;44470;53.206;-6.106;2023-06-14T10:56:46;101929.78;;;20.92;62.22
58690;BME280;44470;53.206;-6.106;2023-06-14T10:59:12;101928.88;;;20.93;62.11
58690;BME280;44470;53.206;-6.106;2023-06-14T11:04:12;101929.78;;;20.92;62.22
58690;BME280;44470;53.206;-6.106;2023-06-14T11:06:45;101921.75;;;20.92;62.29
58690;BME280;44470;53.206;-6.106;2023-06-14T11:09:19;101919.09;;;20.92;62.43
58690;BME280;44470;53.206;-6.106;2023-06-14T11:11:45;101921.75;;;20.92;62.22
58690;BME280;44470;53.206;-6.106;2023-06-14T11:14:11;101919.09;;;20.92;62.58
58690;BME280;44470;53.206;-6.106;2023-06-14T11:16:36;101927.97;;;20.93;62.54
58690;BME280;44470;53.206;-6.106;2023-06-14T11:19:02;101925.31;;;20.93;62.29
58690;BME280;44470;53.206;-6.106;2023-06-14T11:21:32;101927.97;;;20.93;62.49
58690;BME280;44470;53.206;-6.106;2023-06-14T11:23:58;101925.31;;;20.93;62.25
58690;BME280;44470;53.206;-6.106;2023-06-14T11:26:27;101929.78;;;20.92;62.56
58690;BME280;44470;53.206;-6.106;2023-06-14T11:28:57;101932.47;;;20.92;62.58
58690;BME280;44470;53.206;-6.106;2023-06-14T11:31:23;101931.56;;;20.93;62.46
58690;BME280;44470;53.206;-6.106;2023-06-14T11:33:53;101931.56;;;20.93;62.40
58690;BME280;44470;53.206;-6.106;2023-06-14T11:36:18;101926.19;;;20.91;62.61
58690;BME280;44470;53.206;-6.106;2023-06-14T11:38:44;101920.84;;;20.93;62.63
58690;BME280;44470;53.206;-6.106;2023-06-14T11:41:09;101930.66;;;20.93;62.58
58690;BME280;44470;53.206;-6.106;2023-06-14T11:43:34;101930.66;;;20.93;62.26
58690;BME280;44470;53.206;-6.106;2023-06-14T11:46:00;101924.44;;;20.92;62.76
58690;BME280;44470;53.206;-6.106;2023-06-14T11:48:36;101920.84;;;20.93;62.79
58690;BME280;44470;53.206;-6.106;2023-06-14T11:51:02;101919.09;;;20.92;62.65
58690;BME280;44470;53.206;-6.106;2023-06-14T11:53:27;101919.97;;;20.93;62.90
58690;BME280;44470;53.206;-6.106;2023-06-14T11:55:53;101920.84;;;20.93;62.55
58690;BME280;44470;53.206;-6.106;2023-06-14T11:58:18;101913.72;;;20.92;62.28
58690;BME280;44470;53.206;-6.106;2023-06-14T12:00:43;101915.50;;;20.93;62.54
58690;BME280;44470;53.206;-6.106;2023-06-14T12:03:09;101910.16;;;20.93;62.54
58690;BME280;44470;53.206;-6.106;2023-06-14T12:05:35;101911.94;;;20.94;62.74
58690;BME280;44470;53.206;-6.106;2023-06-14T12:08:01;101908.34;;;20.94;62.60
58690;BME280;44470;53.206;-6.106;2023-06-14T12:10:27;101911.94;;;20.94;62.89
58690;BME280;44470;53.206;-6.106;2023-06-14T12:12:56;101904.81;;;20.93;62.61
58690;BME280;44470;53.206;-6.106;2023-06-14T12:15:22;101906.56;;;20.93;62.78
58690;BME280;44470;53.206;-6.106;2023-06-14T12:17:47;101912.84;;;20.95;62.63
58690;BME280;44470;53.206;-6.106;2023-06-14T12:20:13;101911.94;;;20.94;62.61
58690;BME280;44470;53.206;-6.106;2023-06-14T12:22:53;101911.94;;;20.94;62.96
58690;BME280;44470;53.206;-6.106;2023-06-14T12:27:52;101905.69;;;20.94;62.85
58690;BME280;44470;53.206;-6.106;2023-06-14T12:30:18;101915.50;;;20.95;63.05
58690;BME280;44470;53.206;-6.106;2023-06-14T12:32:43;101909.25;;;20.94;62.74
58690;BME280;44470;53.206;-6.106;2023-06-14T12:35:10;101903.91;;;20.94;63.08
58690;BME280;44470;53.206;-6.106;2023-06-14T12:37:35;101907.47;;;20.95;62.85
58690;BME280;44470;53.206;-6.106;2023-06-14T12:40:01;101916.38;;;20.95;63.03
58690;BME280;44470;53.206;-6.106;2023-06-14T12:42:31;101911.94;;;20.94;62.78
58690;BME280;44470;53.206;-6.106;2023-06-14T12:44:56;101916.38;;;20.95;62.95
58690;BME280;44470;53.206;-6.106;2023-06-14T12:47:22;101912.84;;;20.95;63.05
58690;BME280;44470;53.206;-6.106;2023-06-14T12:49:47;101912.84;;;20.95;63.01
58690;BME280;44470;53.206;-6.106;2023-06-14T12:52:12;101907.47;;;20.96;63.11
58690;BME280;44470;53.206;-6.106;2023-06-14T12:54:38;101913.72;;;20.95;63.05